This is the latest recevied weather packets stored in our database for station/object K5FEP. If no packets are shown the sender has not sent any weather packets the latest 10 day(s).
| Time | Temp. | Humidity | Pressure | Rain* | Wind** | Luminosity | Snow |
|---|---|---|---|---|---|---|---|
| 1777118597 | 16.67° C | 71% | 1008.8 hPa | 0 mm | - | 151 W/m² | - |
| 1777118296 | 16.11° C | 74% | 1008.6 hPa | 0 mm | - | 121 W/m² | - |
| 1777117994 | 15.56° C | 75% | 1008.7 hPa | 0 mm | - | 103 W/m² | - |
| 1777117691 | 15.56° C | 77% | 1008.6 hPa | 0 mm | - | 97 W/m² | - |
| 1777117388 | 15° C | 77% | 1008.8 hPa | 0 mm | - | 74 W/m² | - |
| 1777117089 | 15° C | 77% | 1008.5 hPa | 0 mm | - | 65 W/m² | - |
| 1777116785 | 14.44° C | 78% | 1008.4 hPa | 0 mm | - | 61 W/m² | - |
| 1777116480 | 13.89° C | 82% | 1008.3 hPa | 0 mm | - | 58 W/m² | - |
| 1777116177 | 13.33° C | 83% | 1008.4 hPa | 0 mm | - | 54 W/m² | - |
| 1777115876 | 13.33° C | 83% | 1008.2 hPa | 0 mm | - | 50 W/m² | - |
| 1777115573 | 12.78° C | 85% | 1008.3 hPa | 0 mm | - | 41 W/m² | - |
| 1777115269 | 12.78° C | 85% | 1008.2 hPa | 0 mm | - | 37 W/m² | - |
| 1777114966 | 12.78° C | 85% | 1008 hPa | 0 mm | - | 31 W/m² | - |
| 1777114663 | 12.78° C | 85% | 1008.1 hPa | 0 mm | - | 27 W/m² | - |
| 1777114362 | 12.78° C | 86% | 1008.2 hPa | 0 mm | - | 22 W/m² | - |
| 1777114059 | 12.22° C | 86% | 1008.1 hPa | 0 mm | - | 16 W/m² | - |
| 1777113755 | 12.22° C | 86% | 1007.8 hPa | 0 mm | - | 11 W/m² | - |
| 1777113453 | 12.22° C | 86% | 1007.8 hPa | 0 mm | - | 7 W/m² | - |
| 1777113149 | 12.22° C | 85% | 1007.5 hPa | 0 mm | - | 4 W/m² | - |
| 1777112844 | 12.78° C | 82% | 1007.5 hPa | 0 mm | - | 3 W/m² | - |
| 1777112541 | 13.33° C | 81% | 1007.6 hPa | 0 mm | - | 1 W/m² | - |
| 1777112237 | 13.89° C | 78% | 1007.6 hPa | 0 mm | - | 1 W/m² | - |
| 1777111934 | 15° C | 76% | 1007.5 hPa | 0 mm | - | 0 W/m² | - |
| 1777111632 | 14.44° C | 77% | 1007.5 hPa | 0 mm | - | 0 W/m² | - |
| 1777111327 | 13.89° C | 80% | 1007.6 hPa | 0 mm | - | 0 W/m² | - |
* Rain latest hour (hover to see other rain measurements)
** Current wind speed in m/s (hover to see current wind gust speed)